createdAt,value
2023-02-11T00:00:16.812Z,103207.78
2023-02-11T00:02:49.448Z,103201.34
2023-02-11T00:05:21.987Z,103198.81
2023-02-11T00:07:54.543Z,103193.47
2023-02-11T00:10:27.151Z,103180.22
2023-02-11T00:12:59.705Z,103187.13
2023-02-11T00:15:32.208Z,103180.69
2023-02-11T00:18:04.753Z,103180.69
2023-02-11T00:20:40.080Z,103187.13
2023-02-11T00:23:13.375Z,103180.81
2023-02-11T00:25:45.963Z,103174.19
2023-02-11T00:28:18.471Z,103167.84
2023-02-11T00:30:56.569Z,103171.19
2023-02-11T00:33:29.136Z,103171.31
2023-02-11T00:36:14.298Z,103180.69
2023-02-11T00:38:48.341Z,103178.00
2023-02-11T00:41:22.023Z,103175.66
2023-02-11T00:43:54.572Z,103175.19
2023-02-11T00:46:27.220Z,103169.47
2023-02-11T00:48:59.726Z,103163.97
2023-02-11T00:51:32.464Z,103169.50
2023-02-11T00:54:06.554Z,103164.75
2023-02-11T00:56:39.147Z,103164.16
2023-02-11T00:59:11.644Z,103166.53
2023-02-11T01:01:44.269Z,103166.41
2023-02-11T01:04:16.852Z,103170.13
2023-02-11T01:06:50.544Z,103175.28
2023-02-11T01:09:23.053Z,103171.25
2023-02-11T01:11:55.562Z,103169.94
2023-02-11T01:14:28.007Z,103174.66
2023-02-11T01:17:00.494Z,103189.56
2023-02-11T01:19:33.114Z,103186.91
2023-02-11T01:22:06.485Z,103190.94
2023-02-11T01:24:38.995Z,103178.34
2023-02-11T01:27:11.507Z,103171.69
2023-02-11T01:29:44.008Z,103170.19
2023-02-11T01:32:16.721Z,103183.06
2023-02-11T01:34:50.102Z,103181.84
2023-02-11T01:37:22.634Z,103186.91
2023-02-11T01:39:55.161Z,103196.56
2023-02-11T01:42:28.626Z,103185.34
2023-02-11T01:45:57.602Z,103181.66
2023-02-11T01:48:36.434Z,103176.56
2023-02-11T01:51:24.107Z,103169.84
2023-02-11T01:54:16.667Z,103166.94
2023-02-11T01:57:13.415Z,103170.34
2023-02-11T02:00:01.829Z,103149.41
2023-02-11T02:02:37.213Z,103141.38
2023-02-11T02:05:34.545Z,103128.91
2023-02-11T02:08:27.659Z,103140.81
2023-02-11T02:11:00.960Z,103130.66
2023-02-11T02:13:35.933Z,103142.56
2023-02-11T02:16:14.353Z,103137.56
2023-02-11T02:19:41.480Z,103139.78
2023-02-11T02:23:20.844Z,103157.56
2023-02-11T02:26:39.523Z,103158.19
2023-02-11T02:29:36.899Z,103143.00
2023-02-11T02:32:41.167Z,103146.41
2023-02-11T02:35:39.098Z,103142.41
2023-02-11T02:38:13.612Z,103148.97
2023-02-11T02:40:54.827Z,103151.47
2023-02-11T02:43:29.292Z,103156.38
2023-02-11T02:46:18.135Z,103144.31
2023-02-11T02:48:52.888Z,103149.03
2023-02-11T02:51:52.615Z,103138.53
2023-02-11T02:55:00.525Z,103128.09
2023-02-11T02:57:58.504Z,103124.88
2023-02-11T03:01:08.460Z,103127.31
2023-02-11T03:04:03.267Z,103123.63
2023-02-11T03:06:48.178Z,103132.75
2023-02-11T03:09:37.923Z,103131.25
2023-02-11T03:12:13.422Z,103129.75
2023-02-11T03:14:50.080Z,103135.59
2023-02-11T03:17:26.016Z,103139.66
2023-02-11T03:20:00.512Z,103129.16
2023-02-11T03:22:42.780Z,103129.22
2023-02-11T03:25:16.375Z,103124.28
2023-02-11T03:28:04.838Z,103111.53
2023-02-11T03:30:51.621Z,103119.56
2023-02-11T03:33:53.048Z,103121.53
2023-02-11T03:36:45.964Z,103119.94
2023-02-11T03:39:28.688Z,103127.00
2023-02-11T03:42:03.965Z,103132.53
2023-02-11T03:44:46.258Z,103134.28
2023-02-11T03:47:26.098Z,103132.69
2023-02-11T03:50:02.857Z,103136.63
2023-02-11T03:52:38.025Z,103139.16
2023-02-11T03:55:17.793Z,103135.34
2023-02-11T03:57:50.334Z,103131.13
2023-02-11T04:00:36.541Z,103125.50
2023-02-11T04:03:10.833Z,103120.09
2023-02-11T04:05:43.327Z,103135.94
2023-02-11T04:08:15.845Z,103125.88
2023-02-11T04:10:48.292Z,103121.56
2023-02-11T04:13:20.795Z,103106.75
2023-02-11T04:15:53.670Z,103108.88
2023-02-11T04:18:26.329Z,103099.16
2023-02-11T04:20:58.881Z,103096.59
2023-02-11T04:23:31.799Z,103095.19
2023-02-11T04:26:04.632Z,103086.34
2023-02-11T04:28:37.197Z,103082.53
2023-02-11T04:31:11.914Z,103081.88
2023-02-11T04:33:44.470Z,103091.09
2023-02-11T04:36:17.183Z,103085.16
2023-02-11T04:38:49.645Z,103097.19
2023-02-11T04:41:22.097Z,103108.78
2023-02-11T04:43:54.696Z,103104.47
2023-02-11T04:46:27.686Z,103106.06
2023-02-11T04:49:00.205Z,103099.22
2023-02-11T04:51:32.930Z,103111.66
2023-02-11T04:54:05.625Z,103120.06
2023-02-11T04:56:38.619Z,103112.72
2023-02-11T04:59:13.212Z,103097.75
2023-02-11T05:01:45.775Z,103107.28
2023-02-11T05:04:18.820Z,103100.13
2023-02-11T05:06:51.306Z,103109.06
2023-02-11T05:09:23.786Z,103109.84
2023-02-11T05:11:56.250Z,103114.53
2023-02-11T05:14:28.726Z,103120.91
2023-02-11T05:17:01.321Z,103113.84
2023-02-11T05:19:33.928Z,103112.16
2023-02-11T05:22:06.464Z,103102.59
2023-02-11T05:24:39.016Z,103099.50
2023-02-11T05:27:11.566Z,103102.66
2023-02-11T05:29:44.118Z,103095.41
2023-02-11T05:32:16.578Z,103086.72
2023-02-11T05:34:49.091Z,103097.41
2023-02-11T05:37:21.764Z,103099.28
2023-02-11T05:39:54.310Z,103106.56
2023-02-11T05:42:26.982Z,103098.66
2023-02-11T05:44:59.591Z,103095.34
2023-02-11T05:47:32.064Z,103083.56
2023-02-11T05:50:05.094Z,103087.50
2023-02-11T05:52:37.550Z,103095.06
2023-02-11T05:55:10.523Z,103093.97
2023-02-11T05:57:43.127Z,103103.38
2023-02-11T06:00:16.374Z,103087.59
2023-02-11T06:02:48.996Z,103096.84
2023-02-11T06:05:21.617Z,103096.19
2023-02-11T06:07:54.181Z,103101.81
2023-02-11T06:10:27.373Z,103099.50
2023-02-11T06:13:01.757Z,103100.66
2023-02-11T06:15:34.327Z,103101.09
2023-02-11T06:18:07.956Z,103102.38
2023-02-11T06:20:41.443Z,103108.25
2023-02-11T06:23:14.171Z,103099.16
2023-02-11T06:25:46.750Z,103095.56
2023-02-11T06:28:19.945Z,103110.56
2023-02-11T06:30:52.499Z,103100.56
2023-02-11T06:33:25.284Z,103111.31
2023-02-11T06:35:57.764Z,103110.06
2023-02-11T06:38:30.391Z,103096.78
2023-02-11T06:41:02.979Z,103105.47
2023-02-11T06:43:35.485Z,103103.81
2023-02-11T06:46:09.280Z,103107.69
2023-02-11T06:48:44.654Z,103113.97
2023-02-11T06:51:18.398Z,103121.00
2023-02-11T06:53:51.094Z,103127.66
2023-02-11T06:56:27.249Z,103127.13
2023-02-11T06:59:00.379Z,103125.41
2023-02-11T07:01:33.208Z,103131.19
2023-02-11T07:04:06.735Z,103125.78
2023-02-11T07:06:39.182Z,103126.97
2023-02-11T07:09:11.740Z,103132.50
2023-02-11T07:11:44.308Z,103135.22
2023-02-11T07:14:16.926Z,103139.97
2023-02-11T07:16:49.391Z,103137.06
2023-02-11T07:19:21.935Z,103138.28
2023-02-11T07:21:55.186Z,103144.22
2023-02-11T07:24:27.716Z,103141.22
2023-02-11T07:27:00.229Z,103144.53
2023-02-11T07:29:33.192Z,103144.53
2023-02-11T07:32:05.978Z,103147.59
2023-02-11T07:34:38.665Z,103143.66
2023-02-11T07:37:11.239Z,103155.59
2023-02-11T07:39:43.735Z,103154.81
2023-02-11T07:42:16.311Z,103162.41
2023-02-11T07:44:50.560Z,103164.38
2023-02-11T07:47:23.237Z,103167.16
2023-02-11T07:49:56.765Z,103164.00
2023-02-11T07:52:31.039Z,103168.72
2023-02-11T07:55:04.935Z,103170.22
2023-02-11T07:57:37.822Z,103168.91
2023-02-11T08:00:11.399Z,103176.19
2023-02-11T08:02:43.882Z,103184.25
2023-02-11T08:05:16.543Z,103173.47
2023-02-11T08:07:53.373Z,103176.28
2023-02-11T08:10:25.855Z,103182.69
2023-02-11T08:12:58.385Z,103182.34
2023-02-11T08:15:30.896Z,103181.00
2023-02-11T08:18:03.435Z,103181.38
2023-02-11T08:20:35.880Z,103185.66
2023-02-11T08:23:08.405Z,103183.63
2023-02-11T08:25:40.960Z,103187.50
2023-02-11T08:28:13.565Z,103190.84
2023-02-11T08:30:46.094Z,103191.19
2023-02-11T08:33:18.650Z,103190.28
2023-02-11T08:35:51.436Z,103193.44
2023-02-11T08:38:23.931Z,103207.75
2023-02-11T08:40:56.419Z,103202.94
2023-02-11T08:43:29.129Z,103206.88
2023-02-11T08:46:02.550Z,103208.00
2023-02-11T08:48:35.842Z,103205.88
2023-02-11T08:51:20.157Z,103202.19
2023-02-11T08:53:53.777Z,103198.59
2023-02-11T08:56:27.719Z,103199.72
2023-02-11T08:59:00.236Z,103200.06
2023-02-11T09:01:33.771Z,103203.22
2023-02-11T09:04:06.369Z,103208.78
2023-02-11T09:06:39.822Z,103211.16
2023-02-11T09:09:16.900Z,103208.69
2023-02-11T09:11:49.363Z,103210.25
2023-02-11T09:14:24.135Z,103214.31
2023-02-11T09:16:57.357Z,103214.63
2023-02-11T09:19:29.995Z,103211.03
2023-02-11T09:22:02.673Z,103213.50
2023-02-11T09:24:35.225Z,103216.22
2023-02-11T09:27:07.754Z,103229.34
2023-02-11T09:29:40.250Z,103229.47
2023-02-11T09:32:12.979Z,103229.47
2023-02-11T09:34:45.676Z,103232.16
2023-02-11T09:37:18.221Z,103231.72
2023-02-11T09:39:50.736Z,103240.16
2023-02-11T09:42:53.602Z,103246.72
2023-02-11T09:45:29.914Z,103245.00
2023-02-11T09:48:31.080Z,103241.28
2023-02-11T09:51:05.731Z,103241.75
2023-02-11T09:53:43.164Z,103246.22
2023-02-11T09:56:16.052Z,103252.53
2023-02-11T09:58:48.633Z,103250.50
2023-02-11T10:01:37.026Z,103255.34
2023-02-11T10:04:28.419Z,103260.69
2023-02-11T10:07:19.049Z,103257.16
2023-02-11T10:10:22.445Z,103261.84
2023-02-11T10:13:07.919Z,103262.00
2023-02-11T10:15:51.991Z,103259.56
2023-02-11T10:18:49.290Z,103278.00
2023-02-11T10:21:51.469Z,103273.97
2023-02-11T10:24:25.083Z,103277.63
2023-02-11T10:26:58.307Z,103277.22
2023-02-11T10:29:46.100Z,103286.25
2023-02-11T10:33:03.038Z,103290.88
2023-02-11T10:35:38.473Z,103291.16
2023-02-11T10:38:12.080Z,103286.78
2023-02-11T10:40:44.981Z,103285.91
2023-02-11T10:43:23.568Z,103282.75
2023-02-11T10:45:57.621Z,103292.75
2023-02-11T10:48:51.482Z,103293.22
2023-02-11T10:51:34.163Z,103297.03
2023-02-11T10:54:19.170Z,103291.41
2023-02-11T10:57:00.027Z,103297.84
2023-02-11T10:59:40.267Z,103299.41
2023-02-11T11:02:34.365Z,103306.97
2023-02-11T11:05:18.581Z,103311.34
2023-02-11T11:08:02.282Z,103311.34
2023-02-11T11:10:44.055Z,103312.38
2023-02-11T11:13:27.188Z,103319.97
2023-02-11T11:16:17.100Z,103306.63
2023-02-11T11:19:16.284Z,103308.91
2023-02-11T11:21:55.176Z,103304.78
2023-02-11T11:24:44.531Z,103303.63
2023-02-11T11:27:23.238Z,103302.13
2023-02-11T11:29:56.854Z,103311.28
2023-02-11T11:32:33.484Z,103308.03
2023-02-11T11:35:23.546Z,103310.06
2023-02-11T11:38:02.358Z,103314.78
2023-02-11T11:40:36.723Z,103314.78
2023-02-11T11:43:23.028Z,103311.19
2023-02-11T11:45:59.562Z,103312.06
2023-02-11T11:48:42.640Z,103316.03
2023-02-11T11:51:15.633Z,103314.78
2023-02-11T11:54:04.911Z,103314.78
2023-02-11T11:57:08.106Z,103310.28
2023-02-11T11:59:41.521Z,103309.84
2023-02-11T12:03:04.754Z,103313.72
2023-02-11T12:06:18.507Z,103303.34
2023-02-11T12:09:15.357Z,103304.25
2023-02-11T12:12:32.379Z,103296.59
2023-02-11T12:15:26.380Z,103297.28
2023-02-11T12:18:36.023Z,103300.78
2023-02-11T12:21:41.159Z,103298.84
2023-02-11T12:24:27.550Z,103294.28
2023-02-11T12:27:14.312Z,103294.56
2023-02-11T12:30:26.928Z,103285.69
2023-02-11T12:33:44.718Z,103284.50
2023-02-11T12:36:32.105Z,103279.19
2023-02-11T12:39:22.731Z,103276.06
2023-02-11T12:43:03.640Z,103283.72
2023-02-11T12:45:44.935Z,103277.63
2023-02-11T12:48:59.283Z,103276.56
2023-02-11T12:51:55.433Z,103274.47
2023-02-11T12:54:56.767Z,103270.09
2023-02-11T12:57:36.166Z,103274.81
2023-02-11T13:00:26.399Z,103277.41
2023-02-11T13:03:10.964Z,103270.75
2023-02-11T13:05:52.510Z,103263.91
2023-02-11T13:08:33.699Z,103263.47
2023-02-11T13:11:17.646Z,103271.00
2023-02-11T13:14:00.536Z,103255.75
2023-02-11T13:16:44.557Z,103257.41
2023-02-11T13:19:30.307Z,103264.63
2023-02-11T13:22:13.259Z,103263.03
2023-02-11T13:25:06.093Z,103266.09
2023-02-11T13:27:58.364Z,103263.38
2023-02-11T13:30:36.762Z,103270.56
2023-02-11T13:33:32.630Z,103262.84
2023-02-11T13:36:05.056Z,103262.16
2023-02-11T13:38:38.780Z,103264.63
2023-02-11T13:41:21.157Z,103262.94
2023-02-11T13:44:26.567Z,103272.97
2023-02-11T13:47:04.908Z,103264.41
2023-02-11T13:49:42.368Z,103257.31
2023-02-11T13:52:27.599Z,103257.88
2023-02-11T13:55:22.462Z,103255.41
2023-02-11T13:58:06.956Z,103256.66
2023-02-11T14:00:39.370Z,103253.25
2023-02-11T14:03:30.352Z,103256.31
2023-02-11T14:06:27.370Z,103254.84
2023-02-11T14:09:09.003Z,103251.59
2023-02-11T14:11:41.791Z,103265.00
2023-02-11T14:14:25.829Z,103268.94
2023-02-11T14:16:58.340Z,103275.25
2023-02-11T14:19:40.286Z,103270.22
2023-02-11T14:22:29.824Z,103268.75
2023-02-11T14:25:15.397Z,103261.53
2023-02-11T14:28:16.725Z,103263.13
2023-02-11T14:31:07.632Z,103259.09
2023-02-11T14:34:28.727Z,103259.56
2023-02-11T14:37:50.310Z,103261.00
2023-02-11T14:40:34.242Z,103262.47
2023-02-11T14:43:16.869Z,103265.19
2023-02-11T14:45:56.257Z,103271.91
2023-02-11T14:48:37.475Z,103271.19
2023-02-11T14:51:18.687Z,103271.41
2023-02-11T14:54:00.456Z,103270.72
2023-02-11T14:56:34.404Z,103266.56
2023-02-11T14:59:20.355Z,103272.09
2023-02-11T15:01:56.410Z,103268.94
2023-02-11T15:04:36.088Z,103272.28
2023-02-11T15:07:11.905Z,103270.72
2023-02-11T15:09:52.480Z,103281.97
2023-02-11T15:12:28.422Z,103276.78
2023-02-11T15:15:01.136Z,103281.97
2023-02-11T15:17:33.913Z,103273.19
2023-02-11T15:20:15.580Z,103277.25
2023-02-11T15:22:56.354Z,103280.91
2023-02-11T15:25:29.152Z,103285.31
2023-02-11T15:28:02.390Z,103285.50
2023-02-11T15:30:35.267Z,103288.66
2023-02-11T15:33:25.195Z,103294.28
2023-02-11T15:36:01.565Z,103295.38
2023-02-11T15:38:34.128Z,103302.47
2023-02-11T15:41:34.643Z,103297.63
2023-02-11T15:44:28.574Z,103304.75
2023-02-11T15:47:01.202Z,103298.00
2023-02-11T15:49:33.888Z,103296.75
2023-02-11T15:52:08.431Z,103302.81
2023-02-11T15:54:47.807Z,103295.53
2023-02-11T15:57:22.942Z,103296.66
2023-02-11T15:59:56.853Z,103297.34
2023-02-11T16:02:34.662Z,103297.44
2023-02-11T16:05:09.483Z,103293.84
2023-02-11T16:07:41.890Z,103294.28
2023-02-11T16:10:20.158Z,103294.53
2023-02-11T16:12:55.629Z,103301.50
2023-02-11T16:15:58.261Z,103297.94
2023-02-11T16:18:39.065Z,103296.22
2023-02-11T16:21:17.411Z,103293.50
2023-02-11T16:23:54.650Z,103298.34
2023-02-11T16:26:34.503Z,103303.97
2023-02-11T16:29:15.010Z,103302.81
2023-02-11T16:31:48.860Z,103305.53
2023-02-11T16:34:24.761Z,103305.72
2023-02-11T16:36:57.285Z,103313.59
2023-02-11T16:39:29.787Z,103312.91
2023-02-11T16:42:02.703Z,103305.63
2023-02-11T16:44:35.465Z,103311.25
2023-02-11T16:47:24.038Z,103307.28
2023-02-11T16:49:58.612Z,103304.47
2023-02-11T16:52:31.763Z,103303.47
2023-02-11T16:55:06.096Z,103309.84
2023-02-11T16:57:38.730Z,103309.84
2023-02-11T17:00:16.334Z,103315.06
2023-02-11T17:02:48.856Z,103321.19
2023-02-11T17:05:25.138Z,103326.09
2023-02-11T17:07:58.031Z,103328.91
2023-02-11T17:10:30.788Z,103327.69
2023-02-11T17:13:05.061Z,103331.22
2023-02-11T17:15:37.555Z,103328.13
2023-02-11T17:18:14.276Z,103329.44
2023-02-11T17:20:47.042Z,103335.03
2023-02-11T17:23:19.657Z,103337.44
2023-02-11T17:25:56.651Z,103341.56
2023-02-11T17:28:29.502Z,103342.22
2023-02-11T17:31:09.002Z,103354.78
2023-02-11T17:33:42.796Z,103351.75
2023-02-11T17:36:15.363Z,103357.50
2023-02-11T17:38:47.851Z,103355.75
2023-02-11T17:41:20.402Z,103357.50
2023-02-11T17:43:53.274Z,103358.56
2023-02-11T17:46:28.128Z,103362.97
2023-02-11T17:49:02.142Z,103372.19
2023-02-11T17:51:38.574Z,103381.22
2023-02-11T17:54:15.970Z,103382.81
2023-02-11T17:56:50.712Z,103390.44
2023-02-11T17:59:23.428Z,103383.25
2023-02-11T18:01:55.944Z,103385.63
2023-02-11T18:04:28.513Z,103384.56
2023-02-11T18:07:01.118Z,103382.53
2023-02-11T18:09:40.899Z,103382.00
2023-02-11T18:12:13.528Z,103385.94
2023-02-11T18:14:46.028Z,103382.81
2023-02-11T18:17:18.545Z,103388.44
2023-02-11T18:19:54.570Z,103389.09
2023-02-11T18:22:27.547Z,103385.00
2023-02-11T18:25:00.060Z,103391.75
2023-02-11T18:27:32.844Z,103396.03
2023-02-11T18:30:07.718Z,103400.81
2023-02-11T18:32:40.294Z,103402.91
2023-02-11T18:35:15.131Z,103403.69
2023-02-11T18:37:48.093Z,103405.97
2023-02-11T18:40:20.632Z,103409.31
2023-02-11T18:42:53.175Z,103414.56
2023-02-11T18:45:28.528Z,103423.41
2023-02-11T18:48:03.530Z,103416.66
2023-02-11T18:50:36.034Z,103414.22
2023-02-11T18:53:08.651Z,103411.03
2023-02-11T18:55:44.153Z,103415.94
2023-02-11T18:58:16.680Z,103406.81
2023-02-11T19:00:50.842Z,103416.47
2023-02-11T19:03:23.338Z,103418.41
2023-02-11T19:05:55.876Z,103415.69
2023-02-11T19:08:28.487Z,103412.09
2023-02-11T19:11:04.342Z,103411.81
2023-02-11T19:13:36.886Z,103411.81
2023-02-11T19:16:11.680Z,103429.09
2023-02-11T19:18:44.614Z,103409.00
2023-02-11T19:21:17.136Z,103414.34
2023-02-11T19:23:49.663Z,103414.34
2023-02-11T19:26:29.392Z,103411.47
2023-02-11T19:29:02.291Z,103423.34
2023-02-11T19:31:35.118Z,103428.25
2023-02-11T19:34:08.137Z,103427.53
2023-02-11T19:36:41.617Z,103438.75
2023-02-11T19:39:14.251Z,103428.31
2023-02-11T19:41:47.177Z,103432.78
2023-02-11T19:44:19.798Z,103434.88
2023-02-11T19:46:53.285Z,103441.91
2023-02-11T19:49:26.377Z,103444.44
2023-02-11T19:51:59.175Z,103449.09
2023-02-11T19:54:31.609Z,103449.44
2023-02-11T19:57:04.139Z,103453.88
2023-02-11T19:59:36.702Z,103458.22
2023-02-11T20:02:12.934Z,103457.84
2023-02-11T20:04:46.166Z,103453.88
2023-02-11T20:07:18.669Z,103459.78
2023-02-11T20:09:53.543Z,103455.75
2023-02-11T20:12:26.004Z,103458.34
2023-02-11T20:14:58.500Z,103457.16
2023-02-11T20:17:31.071Z,103463.31
2023-02-11T20:20:03.623Z,103468.03
2023-02-11T20:22:36.239Z,103469.13
2023-02-11T20:25:10.826Z,103471.41
2023-02-11T20:27:43.339Z,103478.09
2023-02-11T20:30:16.611Z,103480.81
2023-02-11T20:32:49.128Z,103485.91
2023-02-11T20:35:21.601Z,103483.03
2023-02-11T20:37:54.161Z,103485.69
2023-02-11T20:40:26.627Z,103479.63
2023-02-11T20:42:59.314Z,103482.28
2023-02-11T20:45:35.118Z,103482.59
2023-02-11T20:48:07.618Z,103491.38
2023-02-11T20:50:40.268Z,103495.25
2023-02-11T20:53:12.808Z,103502.25
2023-02-11T20:55:45.374Z,103502.59
2023-02-11T20:58:17.885Z,103505.41
2023-02-11T21:00:50.415Z,103507.72
2023-02-11T21:03:22.974Z,103509.66
2023-02-11T21:05:58.823Z,103510.59
2023-02-11T21:08:31.384Z,103510.97
2023-02-11T21:11:04.080Z,103514.91
2023-02-11T21:13:37.881Z,103514.72
2023-02-11T21:16:16.428Z,103519.03
2023-02-11T21:18:50.685Z,103524.59
2023-02-11T21:21:23.892Z,103522.63
2023-02-11T21:23:58.299Z,103523.16
2023-02-11T21:26:30.877Z,103523.16
2023-02-11T21:29:05.339Z,103525.56
2023-02-11T21:31:38.530Z,103531.97
2023-02-11T21:34:11.221Z,103534.41
2023-02-11T21:36:45.143Z,103530.88
2023-02-11T21:39:19.142Z,103527.38
2023-02-11T21:41:52.184Z,103530.72
2023-02-11T21:44:24.715Z,103531.50
2023-02-11T21:46:57.263Z,103537.03
2023-02-11T21:49:29.750Z,103537.53
2023-02-11T21:52:02.260Z,103541.94
2023-02-11T21:54:34.737Z,103545.81
2023-02-11T21:57:07.269Z,103548.72
2023-02-11T21:59:39.850Z,103545.97
2023-02-11T22:02:12.341Z,103545.97
2023-02-11T22:04:44.884Z,103546.31
2023-02-11T22:07:18.215Z,103555.09
2023-02-11T22:09:52.154Z,103550.03
2023-02-11T22:12:24.617Z,103545.19
2023-02-11T22:14:57.135Z,103538.06
2023-02-11T22:17:29.723Z,103540.44
2023-02-11T22:20:02.347Z,103542.16
2023-02-11T22:22:35.270Z,103534.16
2023-02-11T22:25:08.163Z,103536.59
2023-02-11T22:27:40.609Z,103543.81
2023-02-11T22:30:14.147Z,103539.06
2023-02-11T22:32:47.306Z,103540.66
2023-02-11T22:35:19.945Z,103540.56
2023-02-11T22:37:52.454Z,103542.38
2023-02-11T22:40:25.002Z,103539.22
2023-02-11T22:42:57.452Z,103539.22
2023-02-11T22:45:29.910Z,103544.84
2023-02-11T22:48:02.378Z,103543.25
2023-02-11T22:50:35.198Z,103547.28
2023-02-11T22:53:07.758Z,103549.72
2023-02-11T22:55:40.428Z,103548.00
2023-02-11T22:58:12.939Z,103540.59
2023-02-11T23:00:45.520Z,103541.00
2023-02-11T23:03:18.002Z,103541.31
2023-02-11T23:05:50.573Z,103541.72
2023-02-11T23:08:23.118Z,103534.63
2023-02-11T23:10:55.608Z,103548.16
2023-02-11T23:13:28.054Z,103549.00
2023-02-11T23:16:08.827Z,103555.56
2023-02-11T23:18:43.387Z,103559.16
2023-02-11T23:21:22.188Z,103556.44
2023-02-11T23:24:11.838Z,103558.81
2023-02-11T23:26:44.871Z,103557.09
2023-02-11T23:29:17.459Z,103549.91
2023-02-11T23:31:50.125Z,103552.34
2023-02-11T23:34:25.411Z,103554.00
2023-02-11T23:36:59.145Z,103556.34
2023-02-11T23:39:31.635Z,103556.34
2023-02-11T23:42:04.491Z,103554.78
2023-02-11T23:44:37.009Z,103556.09
2023-02-11T23:47:09.653Z,103556.00
2023-02-11T23:49:42.192Z,103552.13
2023-02-11T23:52:15.017Z,103555.31
2023-02-11T23:54:48.213Z,103554.84
2023-02-11T23:57:20.748Z,103557.25
2023-02-11T23:59:53.198Z,103559.69
